TimeCDT,TemperatureF,Dew PointF,Humidity,Sea Level PressureIn,VisibilityMPH,Wind Direction,Wind SpeedMPH,Gust SpeedMPH,PrecipitationIn,Events,Conditions,WindDirDegrees,DateUTC
12:53 AM,60.1,57.9,93,29.98,10.0,WSW,4.6,-,N/A,,Mostly Cloudy,250,2012-10-16 05:53:00
1:53 AM,61.0,59.0,93,29.96,10.0,Calm,Calm,-,N/A,,Mostly Cloudy,0,2012-10-16 06:53:00
2:53 AM,62.1,59.0,90,29.94,10.0,Calm,Calm,-,N/A,,Mostly Cloudy,0,2012-10-16 07:53:00
3:53 AM,62.1,59.0,90,29.93,10.0,Calm,Calm,-,N/A,,Mostly Cloudy,0,2012-10-16 08:53:00
4:53 AM,62.1,59.0,90,29.92,10.0,Calm,Calm,-,N/A,,Overcast,0,2012-10-16 09:53:00
5:53 AM,62.1,60.1,93,29.92,10.0,Calm,Calm,-,N/A,,Mostly Cloudy,0,2012-10-16 10:53:00
6:53 AM,64.4,59.0,83,29.93,10.0,Calm,Calm,-,N/A,,Mostly Cloudy,0,2012-10-16 11:53:00
7:53 AM,63.0,60.1,90,29.93,8.0,Calm,Calm,-,N/A,,Mostly Cloudy,0,2012-10-16 12:53:00
8:53 AM,64.9,57.9,78,29.93,10.0,Calm,Calm,-,N/A,,Overcast,0,2012-10-16 13:53:00
9:53 AM,66.9,57.0,70,29.94,10.0,SSW,3.5,-,N/A,,Overcast,200,2012-10-16 14:53:00
10:53 AM,69.1,57.0,65,29.94,10.0,South,4.6,-,N/A,,Overcast,190,2012-10-16 15:53:00
11:53 AM,71.1,54.0,55,29.92,10.0,South,6.9,-,N/A,,Overcast,170,2012-10-16 16:53:00
12:53 PM,73.0,59.0,61,29.90,10.0,South,5.8,-,0.00,,Overcast,190,2012-10-16 17:53:00
1:53 PM,72.0,61.0,68,29.86,10.0,South,4.6,-,0.00,Rain,Light Rain,190,2012-10-16 18:53:00
2:53 PM,70.0,64.0,81,29.84,5.0,South,5.8,-,0.03,Rain,Light Rain,170,2012-10-16 19:53:00
3:53 PM,69.1,64.9,87,29.83,7.0,SE,4.6,-,0.01,Rain,Light Rain,130,2012-10-16 20:53:00
4:12 PM,69.8,64.4,83,29.83,6.0,Calm,Calm,-,0.01,Rain,Light Rain,0,2012-10-16 21:12:00
4:53 PM,68.0,64.0,87,29.81,5.0,SSE,4.6,-,0.03,Rain,Light Rain,150,2012-10-16 21:53:00
5:04 PM,68.0,64.4,88,29.83,2.5,South,3.5,-,0.01,Rain,Rain,180,2012-10-16 22:04:00
5:07 PM,66.2,64.4,94,29.83,3.0,Calm,Calm,-,0.03,Rain,Light Rain,0,2012-10-16 22:07:00
5:53 PM,68.0,64.9,90,29.78,6.0,SSE,12.7,-,0.07,Rain,Light Rain,150,2012-10-16 22:53:00
6:45 PM,68.0,66.2,94,29.80,7.0,SSE,10.4,-,0.00,,Overcast,150,2012-10-16 23:45:00
6:53 PM,68.0,66.0,93,29.79,7.0,SSE,8.1,-,0.00,,Overcast,150,2012-10-16 23:53:00
7:16 PM,66.2,64.4,94,29.79,10.0,SSE,8.1,-,N/A,,Overcast,160,2012-10-17 00:16:00
7:53 PM,66.9,64.0,90,29.79,10.0,SSE,6.9,-,N/A,,Overcast,150,2012-10-17 00:53:00
8:53 PM,64.9,63.0,93,29.81,10.0,South,6.9,-,N/A,,Overcast,180,2012-10-17 01:53:00
9:11 PM,64.4,62.6,94,29.81,10.0,SSE,6.9,-,N/A,,Overcast,160,2012-10-17 02:11:00
9:50 PM,64.4,62.6,94,29.81,10.0,South,9.2,-,N/A,,Mostly Cloudy,180,2012-10-17 02:50:00
9:53 PM,64.9,62.1,90,29.80,10.0,South,8.1,-,N/A,,Mostly Cloudy,180,2012-10-17 02:53:00
10:29 PM,64.4,62.6,94,29.81,10.0,South,10.4,-,N/A,,Mostly Cloudy,180,2012-10-17 03:29:00
10:53 PM,64.0,62.1,93,29.79,10.0,South,9.2,-,N/A,,Mostly Cloudy,180,2012-10-17 03:53:00
11:19 PM,64.4,62.6,94,29.81,10.0,South,6.9,-,N/A,,Overcast,190,2012-10-17 04:19:00
11:53 PM,64.0,62.1,93,29.79,10.0,South,4.6,-,N/A,,Overcast,180,2012-10-17 04:53:00